Time;durP1;ratioP1;P1;durP2;ratioP2;P2;SDS_P1;SDS_P2;PMS_P1;PMS_P2;Temp;Humidity;BMP_temperature;BMP_pressure;BME280_temperature;BME280_humidity;BME280_pressure;Samples;Min_cycle;Max_cycle;Signal;HPM_P1;HPM_P2
2022/06/11 00:01:08;;;;;;;8.70;7.07;;;;;;;18.82;51.77;99702.19;5010798;28;20045;-56
2022/06/11 00:03:34;;;;;;;8.38;6.90;;;;;;;18.62;51.73;99678.28;5027201;28;20029;-56
2022/06/11 00:05:59;;;;;;;9.15;6.90;;;;;;;18.79;51.50;99712.34;5030998;28;20367;-55
2022/06/11 00:08:26;;;;;;;10.65;6.78;;;;;;;18.77;51.69;99706.28;5030471;28;20029;-57
2022/06/11 00:10:52;;;;;;;9.80;6.88;;;;;;;18.76;51.72;99706.47;5030346;28;20025;-53
2022/06/11 00:13:22;;;;;;;8.45;6.38;;;;;;;18.76;51.58;99717.31;5030843;28;20036;-54
2022/06/11 00:15:49;;;;;;;8.10;6.75;;;;;;;18.71;51.95;99708.88;5030564;28;20060;-53
2022/06/11 00:18:16;;;;;;;10.23;6.68;;;;;;;18.71;52.02;99717.03;5030151;28;20034;-57
2022/06/11 00:20:42;;;;;;;9.00;6.70;;;;;;;18.66;52.15;99706.72;5029210;28;20043;-56
2022/06/11 00:23:07;;;;;;;7.43;6.63;;;;;;;18.67;52.16;99707.53;5030962;28;20041;-53
2022/06/11 00:25:34;;;;;;;13.95;7.03;;;;;;;18.61;52.59;99709.94;5030358;28;20116;-53
2022/06/11 00:28:01;;;;;;;8.30;6.75;;;;;;;18.63;52.56;99712.50;5029889;28;20037;-54
2022/06/11 00:30:27;;;;;;;8.77;7.10;;;;;;;18.61;52.46;99720.78;5030439;28;20390;-56
2022/06/11 00:32:55;;;;;;;9.90;7.60;;;;;;;18.61;52.44;99719.97;5031007;28;20505;-53
2022/06/11 00:35:22;;;;;;;11.18;7.30;;;;;;;18.59;52.64;99713.88;5030600;28;20091;-58
2022/06/11 00:37:47;;;;;;;8.73;7.00;;;;;;;18.56;52.92;99711.50;5030157;28;20087;-53
2022/06/11 00:40:17;;;;;;;8.52;7.18;;;;;;;18.53;52.54;99706.44;5030357;28;20545;-54
2022/06/11 00:42:43;;;;;;;8.10;7.13;;;;;;;18.50;53.03;99713.09;5030640;28;20397;-58
2022/06/11 00:45:25;;;;;;;9.45;7.40;;;;;;;18.61;52.54;99714.53;5030283;28;20044;-57
2022/06/11 00:47:59;;;;;;;9.07;7.18;;;;;;;18.56;52.44;99725.91;5030386;28;20095;-55
2022/06/11 00:50:44;;;;;;;9.48;7.20;;;;;;;18.51;52.92;99726.44;5030465;28;20108;-56
2022/06/11 00:53:30;;;;;;;9.55;7.03;;;;;;;18.49;52.54;99700.56;5030709;28;20087;-55
2022/06/11 00:55:56;;;;;;;;;;;;;;;18.84;50.83;99727.28;5030529;28;20042;-58
2022/06/11 00:58:23;;;;;;;;;;;;;;;18.94;49.78;99727.88;5030801;28;19920;-56
2022/06/11 01:00:54;;;;;;;8.40;6.72;;;;;;;18.63;52.03;99735.00;5029701;28;19920;-54
2022/06/11 01:03:25;;;;;;;7.97;6.88;;;;;;;18.61;52.59;99726.22;5030708;28;20045;-55
2022/06/11 01:06:04;;;;;;;11.43;7.50;;;;;;;18.62;52.38;99733.31;5030234;28;20469;-56
2022/06/11 01:08:36;;;;;;;8.57;6.80;;;;;;;18.65;52.03;99742.97;5030000;28;20037;-56
2022/06/11 01:11:07;;;;;;;9.38;7.38;;;;;;;18.65;52.08;99748.41;5030299;28;20053;-54
2022/06/11 01:13:36;;;;;;;13.07;7.82;;;;;;;18.59;52.21;99746.41;5030215;28;20029;-57
2022/06/11 01:16:24;;;;;;;9.77;7.28;;;;;;;18.68;52.18;99750.75;5029375;28;20029;-54
2022/06/11 01:19:19;;;;;;;7.80;6.72;;;;;;;18.70;52.33;99756.00;5029829;28;20501;-57
2022/06/11 01:22:19;;;;;;;10.23;7.30;;;;;;;18.73;52.67;99756.47;5032177;28;20076;-55
2022/06/11 01:25:02;;;;;;;10.68;7.55;;;;;;;18.63;52.99;99750.44;5032969;28;20103;-57
2022/06/11 01:27:45;;;;;;;8.77;7.00;;;;;;;18.62;53.00;99752.31;5033350;28;20037;-54
2022/06/11 01:30:24;;;;;;;11.23;7.45;;;;;;;18.73;52.83;99766.50;5033320;28;20041;-58
2022/06/11 01:33:02;;;;;;;9.55;7.03;;;;;;;18.69;52.85;99760.56;5033354;28;20155;-56
2022/06/11 01:35:57;;;;;;;12.07;7.13;;;;;;;18.77;52.82;99768.66;5033120;28;20037;-58
2022/06/11 01:38:40;;;;;;;11.60;7.47;;;;;;;18.83;52.78;99768.97;5033412;28;20042;-57
2022/06/11 01:41:29;;;;;;;11.85;7.90;;;;;;;18.87;52.59;99773.03;5033146;28;20041;-55
2022/06/11 01:44:01;;;;;;;10.27;8.05;;;;;;;18.84;53.08;99766.06;5033857;28;20029;-55
2022/06/11 01:46:35;;;;;;;10.75;7.88;;;;;;;18.82;53.06;99760.00;5033851;28;20047;-55
2022/06/11 01:49:27;;;;;;;12.48;8.50;;;;;;;18.99;52.63;99766.16;5032782;28;20041;-57
2022/06/11 01:52:05;;;;;;;13.63;8.25;;;;;;;18.96;52.96;99766.50;5033643;28;20041;-56
2022/06/11 01:55:03;;;;;;;16.10;9.32;;;;;;;19.06;52.65;99766.28;5033149;28;20420;-54
2022/06/11 01:57:59;;;;;;;13.25;7.70;;;;;;;19.08;52.72;99765.09;5032574;28;20030;-59
2022/06/11 02:00:29;;;;;;;15.07;8.18;;;;;;;19.08;52.71;99770.53;5033390;28;20037;-52
2022/06/11 02:03:14;;;;;;;15.95;9.55;;;;;;;19.14;53.03;99766.22;5033561;28;20040;-52
2022/06/11 02:05:50;;;;;;;16.52;9.02;;;;;;;19.19;53.38;99766.56;5032819;28;20041;-50
2022/06/11 02:08:32;;;;;;;17.15;9.43;;;;;;;19.26;52.49;99755.78;5033066;28;20037;-50
2022/06/11 02:11:29;;;;;;;18.52;9.65;;;;;;;19.32;52.35;99760.50;5033373;28;20034;-55
2022/06/11 02:14:39;;;;;;;14.85;9.10;;;;;;;19.49;51.87;99755.78;5032132;28;20021;-57
2022/06/11 02:17:28;;;;;;;13.93;9.02;;;;;;;19.65;52.03;99756.63;5010315;28;20052;-55
2022/06/11 02:20:01;;;;;;;16.88;9.40;;;;;;;19.74;51.79;99749.22;5032705;28;20033;-56
2022/06/11 02:22:35;;;;;;;19.33;9.82;;;;;;;19.94;51.27;99742.25;5032457;28;20045;-57
2022/06/11 02:25:16;;;;;;;16.35;9.07;;;;;;;20.22;50.07;99732.59;5032293;28;20041;-58
2022/06/11 02:27:43;;;;;;;18.30;9.73;;;;;;;20.42;48.79;99732.81;5032917;28;20120;-56
2022/06/11 02:30:13;;;;;;;17.70;9.25;;;;;;;20.71;48.02;99727.50;5032627;28;20633;-57
2022/06/11 02:32:38;;;;;;;14.75;9.60;;;;;;;20.82;47.05;99699.81;5031319;28;20045;-55
2022/06/11 02:35:09;;;;;;;16.40;10.10;;;;;;;21.36;46.21;99722.91;5032190;28;20127;-57
2022/06/11 02:37:39;;;;;;;15.20;9.18;;;;;;;21.75;45.85;99728.88;5032405;28;20022;-56
2022/06/11 02:40:10;;;;;;;14.18;9.32;;;;;;;22.12;44.98;99717.75;5032614;28;20401;-51
2022/06/11 02:42:37;;;;;;;14.00;9.13;;;;;;;22.33;44.37;99713.22;5031888;28;20099;-57
2022/06/11 02:45:04;;;;;;;12.13;8.48;;;;;;;22.48;42.89;99719.41;5031936;28;20065;-57
2022/06/11 02:47:29;;;;;;;15.05;7.90;;;;;;;22.51;42.46;99723.59;5032782;28;20037;-58
2022/06/11 02:49:55;;;;;;;16.23;8.68;;;;;;;22.50;42.81;99728.22;5031271;28;20026;-58
2022/06/11 02:52:23;;;;;;;11.00;8.45;;;;;;;22.37;43.05;99709.03;5031652;28;20033;-59
2022/06/11 02:54:52;;;;;;;13.25;8.65;;;;;;;22.55;44.13;99741.25;5031903;28;20079;-57
2022/06/11 02:57:27;;;;;;;12.23;8.38;;;;;;;22.76;42.63;99734.78;5030640;28;20485;-55
2022/06/11 02:59:53;;;;;;;14.10;8.13;;;;;;;22.82;41.25;99743.19;5032311;28;20906;-55
2022/06/11 03:02:20;;;;;;;14.07;8.02;;;;;;;22.94;40.75;99715.06;5031695;28;20033;-58
2022/06/11 03:04:46;;;;;;;13.63;8.60;;;;;;;23.40;40.37;99725.44;5030213;28;20036;-55
2022/06/11 03:07:12;;;;;;;12.52;7.68;;;;;;;23.82;39.47;99723.25;5031995;28;20041;-55
2022/06/11 03:09:40;;;;;;;10.45;7.68;;;;;;;24.20;38.38;99725.28;5031697;28;20033;-54
2022/06/11 03:12:07;;;;;;;9.70;6.68;;;;;;;24.72;36.28;99727.13;5031039;28;20071;-57
2022/06/11 03:14:33;;;;;;;9.93;6.10;;;;;;;25.27;35.29;99722.97;5031764;28;20033;-55
2022/06/11 03:16:58;;;;;;;8.40;6.18;;;;;;;25.83;34.14;99708.56;5031329;28;20377;-57
2022/06/11 03:19:24;;;;;;;10.50;5.53;;;;;;;26.27;32.99;99723.06;5031224;28;20040;-54
2022/06/11 03:21:55;;;;;;;8.90;5.45;;;;;;;26.63;32.42;99723.25;5031352;28;20032;-54
2022/06/11 03:24:22;;;;;;;8.30;5.10;;;;;;;26.96;31.83;99721.94;5029776;28;20034;-54
2022/06/11 03:26:48;;;;;;;7.82;4.90;;;;;;;27.27;30.46;99724.63;5030980;28;20037;-53
2022/06/11 03:29:15;;;;;;;6.50;5.07;;;;;;;27.31;30.67;99699.19;5030915;28;20454;-56
2022/06/11 03:31:43;;;;;;;5.00;4.50;;;;;;;27.55;30.11;99718.47;5031359;28;20041;-55
2022/06/11 03:34:09;;;;;;;7.55;4.47;;;;;;;27.59;29.72;99719.66;5031161;28;20045;-54
2022/06/11 03:36:35;;;;;;;4.70;3.95;;;;;;;27.75;29.37;99726.34;5031277;28;20440;-54
2022/06/11 03:39:01;;;;;;;6.25;4.57;;;;;;;28.08;28.73;99726.78;5031475;28;20040;-57
2022/06/11 03:41:27;;;;;;;4.93;4.40;;;;;;;28.42;28.32;99726.94;5030859;28;20041;-56
2022/06/11 03:43:52;;;;;;;6.78;4.82;;;;;;;28.73;27.68;99722.03;5031025;28;20030;-57
2022/06/11 03:46:19;;;;;;;6.32;4.22;;;;;;;29.14;27.52;99730.22;5029847;28;20393;-57
2022/06/11 03:48:45;;;;;;;6.22;4.20;;;;;;;29.55;26.43;99721.78;5031135;28;20021;-57
2022/06/11 03:51:12;;;;;;;5.30;4.15;;;;;;;30.00;25.67;99727.38;5030553;28;20466;-59
2022/06/11 03:53:38;;;;;;;5.68;4.10;;;;;;;30.36;25.31;99741.66;5029432;28;20129;-57
2022/06/11 03:56:06;;;;;;;7.22;3.80;;;;;;;30.81;24.83;99736.09;5030899;28;20033;-57
2022/06/11 03:58:33;;;;;;;6.80;4.18;;;;;;;31.12;24.04;99715.09;5031125;28;20029;-55
2022/06/11 04:01:18;;;;;;;6.28;4.72;;;;;;;31.79;23.52;99735.00;5028694;28;20112;-56
2022/06/11 04:03:47;;;;;;;;;;;;;;;33.22;23.33;99739.63;5030930;28;20061;-53
2022/06/11 04:06:13;;;;;;;4.38;3.50;;;;;;;33.35;21.41;99744.63;5062975;28;19970;-54
2022/06/11 04:08:40;;;;;;;6.85;4.10;;;;;;;33.77;21.05;99728.75;5030459;28;20044;-53
2022/06/11 04:11:07;;;;;;;3.95;3.55;;;;;;;34.34;20.39;99733.31;5029047;28;20025;-59
2022/06/11 04:13:34;;;;;;;5.80;4.28;;;;;;;34.91;19.76;99735.75;5031077;28;20100;-66
2022/06/11 04:16:00;;;;;;;5.53;3.85;;;;;;;35.17;18.79;99735.59;5030581;28;20538;-65
2022/06/11 04:18:36;;;;;;;4.80;3.80;;;;;;;35.29;19.56;99736.03;5030376;28;20041;-66
2022/06/11 04:21:05;;;;;;;5.00;3.75;;;;;;;35.19;19.23;99725.84;5030035;28;20124;-67
2022/06/11 04:23:31;;;;;;;3.95;3.47;;;;;;;34.41;19.67;99733.81;5019698;28;20049;-65
2022/06/11 04:26:05;;;;;;;5.25;3.35;;;;;;;33.49;21.21;99724.63;5030111;28;20118;-66
2022/06/11 04:28:32;;;;;;;5.40;3.50;;;;;;;32.35;21.94;99732.81;5030555;28;20454;-65
2022/06/11 04:31:01;;;;;;;5.88;3.75;;;;;;;31.59;23.11;99729.31;5030335;28;20021;-66
2022/06/11 04:33:26;;;;;;;5.75;3.60;;;;;;;30.65;24.19;99727.66;5030361;28;20033;-66
2022/06/11 04:35:52;;;;;;;4.38;3.55;;;;;;;30.07;25.31;99725.28;5018191;28;20041;-65
2022/06/11 04:38:18;;;;;;;4.35;3.47;;;;;;;29.62;26.48;99738.97;5027414;28;20389;-65
2022/06/11 04:40:44;;;;;;;4.80;4.10;;;;;;;29.36;27.31;99746.00;5030162;28;20034;-66
2022/06/11 04:43:10;;;;;;;3.92;3.63;;;;;;;29.69;26.11;99743.50;5029316;28;20178;-67
2022/06/11 04:45:36;;;;;;;5.00;3.63;;;;;;;31.92;23.46;99736.47;5030610;28;20119;-70
2022/06/11 04:48:03;;;;;;;4.13;3.22;;;;;;;34.14;20.34;99723.94;5028519;28;20029;-69
2022/06/11 04:50:28;;;;;;;7.00;3.78;;;;;;;34.68;19.51;99732.56;5029911;28;20037;-69
2022/06/11 04:52:54;;;;;;;3.70;3.40;;;;;;;35.80;18.13;99733.06;5030367;28;20480;-69
2022/06/11 04:55:20;;;;;;;5.07;3.58;;;;;;;37.16;17.05;99750.53;5030515;28;20032;-69
2022/06/11 04:57:47;;;;;;;4.78;3.00;;;;;;;38.54;15.29;99737.03;5033923;28;20029;-68
2022/06/11 05:00:16;;;;;;;3.67;3.28;;;;;;;39.76;14.15;99747.47;5033834;28;20411;-67
2022/06/11 05:02:42;;;;;;;4.18;3.15;;;;;;;39.51;14.49;99746.16;5032857;28;20056;-69
2022/06/11 05:05:09;;;;;;;7.05;3.25;;;;;;;38.83;15.30;99733.00;5034264;28;20450;-62
2022/06/11 05:07:34;;;;;;;4.22;2.90;;;;;;;38.71;14.85;99750.34;5033236;28;20036;-62
2022/06/11 05:10:00;;;;;;;3.53;3.10;;;;;;;39.70;13.85;99737.56;5033705;28;20025;-63
2022/06/11 05:12:25;;;;;;;6.47;3.00;;;;;;;41.29;12.54;99749.88;5032527;28;20476;-63
2022/06/11 05:14:51;;;;;;;4.88;2.92;;;;;;;41.57;11.95;99755.09;5033532;28;20072;-64
2022/06/11 05:17:17;;;;;;;5.00;2.60;;;;;;;41.55;11.96;99751.81;5033689;28;20049;-64
2022/06/11 05:19:42;;;;;;;2.80;2.60;;;;;;;41.81;11.87;99738.81;5033713;28;20029;-63
2022/06/11 05:22:08;;;;;;;4.35;2.67;;;;;;;41.37;11.62;99745.41;5033789;28;20147;-64
2022/06/11 05:24:33;;;;;;;4.57;2.30;;;;;;;41.20;11.85;99740.63;5033477;28;20033;-64
2022/06/11 05:27:06;;;;;;;5.40;2.60;;;;;;;42.51;11.35;99751.72;5033763;28;20104;-63
2022/06/11 05:29:35;;;;;;;2.97;2.70;;;;;;;43.87;10.52;99759.88;5033557;28;20041;-67
2022/06/11 05:32:01;;;;;;;3.08;2.85;;;;;;;44.13;9.75;99738.97;5033162;28;20042;-69
2022/06/11 05:34:28;;;;;;;4.15;2.50;;;;;;;44.03;10.03;99755.19;5033013;28;20429;-73
2022/06/11 05:36:55;;;;;;;2.65;2.05;;;;;;;43.53;9.96;99745.81;5033270;28;20087;-75
2022/06/11 05:39:21;;;;;;;3.92;2.20;;;;;;;42.46;10.38;99753.56;5031911;28;20025;-76
2022/06/11 05:41:47;;;;;;;2.30;2.10;;;;;;;41.69;11.10;99751.59;5033333;28;20476;-73
2022/06/11 05:44:13;;;;;;;3.80;2.47;;;;;;;40.95;11.52;99745.13;5033601;28;20033;-66
2022/06/11 05:46:38;;;;;;;2.70;2.45;;;;;;;40.02;12.77;99734.72;5033369;28;20457;-72
2022/06/11 05:49:14;;;;;;;5.75;2.80;;;;;;;39.55;13.24;99750.00;5033085;28;20029;-71
2022/06/11 05:51:43;;;;;;;3.85;2.88;;;;;;;39.42;13.64;99746.13;5033317;28;20030;-71
2022/06/11 05:54:13;;;;;;;4.22;2.55;;;;;;;39.43;13.55;99732.97;5032637;28;20048;-70
2022/06/11 05:56:38;;;;;;;2.80;2.47;;;;;;;39.05;12.94;99732.19;5032912;28;20026;-72
2022/06/11 05:59:08;;;;;;;2.03;1.80;;;;;;;38.20;14.11;99744.72;5032827;28;20107;-71
2022/06/11 06:01:38;;;;;;;3.60;2.10;;;;;;;37.15;14.95;99754.47;5033407;28;20048;-73
2022/06/11 06:04:04;;;;;;;2.78;2.17;;;;;;;36.95;15.35;99750.84;5031707;28;20044;-71
2022/06/11 06:06:29;;;;;;;4.00;2.17;;;;;;;38.04;14.25;99747.00;5031804;28;20029;-70
2022/06/11 06:08:55;;;;;;;3.85;2.38;;;;;;;38.75;14.18;99754.16;5031609;28;20041;-72
2022/06/11 06:11:20;;;;;;;3.00;2.03;;;;;;;38.70;13.67;99759.03;5032774;28;20489;-71
2022/06/11 06:13:46;;;;;;;3.80;2.13;;;;;;;38.42;13.63;99751.53;5030647;28;20033;-70
2022/06/11 06:16:15;;;;;;;6.95;2.20;;;;;;;37.87;14.38;99764.38;5032674;28;20108;-72
2022/06/11 06:18:41;;;;;;;2.65;1.85;;;;;;;36.70;15.00;99766.00;5033416;28;20021;-72
2022/06/11 06:21:07;;;;;;;2.97;1.63;;;;;;;35.38;15.59;99772.44;5031777;28;20025;-74
2022/06/11 06:23:34;;;;;;;4.13;1.92;;;;;;;34.21;17.22;99780.03;5031979;28;20132;-71
2022/06/11 06:25:59;;;;;;;6.38;4.15;;;;;;;33.20;20.04;99778.75;5032055;28;20381;-71
2022/06/11 06:28:25;;;;;;;9.85;4.72;;;;;;;32.29;21.74;99787.31;5032968;28;20037;-71
2022/06/11 06:30:51;;;;;;;8.48;5.88;;;;;;;31.42;24.04;99779.25;5032737;28;20041;-71
2022/06/11 06:33:16;;;;;;;8.32;5.65;;;;;;;30.50;24.99;99776.09;5030882;28;20116;-72
2022/06/11 06:35:42;;;;;;;10.05;5.63;;;;;;;29.82;26.00;99779.00;5031928;28;20392;-68
2022/06/11 06:38:08;;;;;;;10.65;5.45;;;;;;;29.34;26.60;99781.28;5032650;28;20600;-72
2022/06/11 06:40:35;;;;;;;9.38;5.40;;;;;;;28.84;27.81;99789.22;5032763;28;20396;-71
2022/06/11 06:43:01;;;;;;;9.63;5.55;;;;;;;28.48;28.41;99791.22;5031536;28;20385;-69
2022/06/11 06:45:26;;;;;;;8.32;5.40;;;;;;;28.22;28.92;99783.25;5030736;28;20033;-69
2022/06/11 06:47:52;;;;;;;7.68;5.10;;;;;;;28.21;29.24;99784.34;5032441;28;20032;-69
2022/06/11 06:50:17;;;;;;;11.02;5.05;;;;;;;27.88;29.26;99787.69;5032306;28;20026;-72
2022/06/11 06:52:43;;;;;;;6.97;4.43;;;;;;;27.52;29.83;99762.94;5031636;28;20044;-69
2022/06/11 06:55:13;;;;;;;6.20;4.30;;;;;;;27.75;30.71;99788.78;5030517;28;20454;-68
2022/06/11 06:57:39;;;;;;;11.05;5.00;;;;;;;28.21;29.48;99795.34;5031354;28;20113;-69
2022/06/11 07:00:08;;;;;;;7.10;4.18;;;;;;;28.60;28.12;99771.91;5031646;28;20038;-68
2022/06/11 07:02:33;;;;;;;12.45;4.53;;;;;;;29.32;27.63;99795.28;5031529;28;20087;-71
2022/06/11 07:04:59;;;;;;;7.35;4.38;;;;;;;30.64;25.69;99775.72;5031353;28;20037;-69
2022/06/11 07:07:26;;;;;;;7.30;4.53;;;;;;;33.75;22.21;99778.19;5031635;28;20029;-71
2022/06/11 07:09:55;;;;;;;7.93;4.43;;;;;;;35.30;20.16;99785.00;5031044;28;20032;-72
2022/06/11 07:12:21;;;;;;;4.75;4.15;;;;;;;34.73;20.54;99763.16;5031113;28;20442;-71
2022/06/11 07:14:47;;;;;;;8.85;4.28;;;;;;;33.84;20.86;99775.66;5031378;28;20107;-62
2022/06/11 07:17:15;;;;;;;7.20;4.55;;;;;;;32.80;22.46;99799.72;5031622;28;20037;-73
2022/06/11 07:19:48;;;;;;;7.20;4.05;;;;;;;32.07;23.86;99795.78;5030758;28;20029;-72
2022/06/11 07:22:30;;;;;;;9.63;4.20;;;;;;;31.24;24.63;99797.09;5031417;28;20046;-71
2022/06/11 07:24:55;;;;;;;7.13;3.78;;;;;;;30.62;25.63;99794.47;5031201;28;20037;-73
2022/06/11 07:27:27;;;;;;;8.15;4.07;;;;;;;30.62;25.50;99800.00;5030672;28;20520;-70
2022/06/11 07:30:15;;;;;;;4.32;3.92;;;;;;;30.84;25.06;99790.84;5031413;28;20553;-71
2022/06/11 07:32:44;;;;;;;5.97;4.22;;;;;;;30.55;25.01;99788.28;5030390;28;20038;-73
2022/06/11 07:35:13;;;;;;;6.38;3.58;;;;;;;30.41;25.27;99787.84;5029265;28;20033;-71
2022/06/11 07:37:40;;;;;;;5.10;3.42;;;;;;;30.05;25.21;99778.00;5030606;28;20033;-71
2022/06/11 07:40:06;;;;;;;5.88;3.45;;;;;;;29.79;25.09;99782.28;5031211;28;20033;-72
2022/06/11 07:42:32;;;;;;;4.78;2.95;;;;;;;29.79;25.16;99787.78;5030854;28;20038;-70
2022/06/11 07:44:58;;;;;;;7.32;3.15;;;;;;;29.91;25.43;99788.53;5030914;28;20037;-73
2022/06/11 07:50:11;;;;;;;8.80;3.78;;;;;;;29.76;26.00;99796.59;5016659;28;20373;-71
2022/06/11 07:52:40;;;;;;;5.57;4.25;;;;;;;29.00;26.85;99809.63;5029432;28;20061;-71
2022/06/11 07:55:07;;;;;;;10.15;4.00;;;;;;;28.18;27.68;99809.56;5031150;28;20029;-71
2022/06/11 07:57:32;;;;;;;7.78;3.97;;;;;;;27.82;29.12;99800.50;5030895;28;20037;-71
2022/06/11 07:59:58;;;;;;;4.45;3.90;;;;;;;27.55;30.10;99789.94;5030288;28;20334;-71
2022/06/11 08:02:25;;;;;;;5.68;3.72;;;;;;;27.41;29.76;99813.19;5029215;28;20037;-72
2022/06/11 08:04:51;;;;;;;7.68;3.47;;;;;;;27.19;29.77;99814.59;5029865;28;20040;-63
2022/06/11 08:07:17;;;;;;;7.10;4.28;;;;;;;27.16;30.09;99812.31;5030855;28;20029;-72
2022/06/11 08:09:42;;;;;;;8.10;3.88;;;;;;;27.13;31.22;99814.69;5030069;28;20390;-72
2022/06/11 08:12:08;;;;;;;8.50;4.88;;;;;;;26.87;31.11;99787.34;5029732;28;20021;-70
2022/06/11 08:14:34;;;;;;;8.70;4.50;;;;;;;26.99;30.59;99820.34;5030907;28;20067;-71
2022/06/11 08:17:00;;;;;;;3.83;3.00;;;;;;;27.04;29.65;99815.03;5030833;28;20526;-72
2022/06/11 08:19:25;;;;;;;4.07;2.50;;;;;;;27.11;29.43;99816.81;5029957;28;20103;-69
2022/06/11 08:21:51;;;;;;;3.92;2.33;;;;;;;27.20;29.01;99818.16;5028915;28;20048;-61
2022/06/11 08:24:16;;;;;;;3.97;2.40;;;;;;;27.32;29.20;99816.28;5030930;28;20059;-71
2022/06/11 08:26:42;;;;;;;6.07;2.42;;;;;;;27.37;28.82;99807.34;5030402;28;20061;-71
2022/06/11 08:29:07;;;;;;;2.53;2.17;;;;;;;27.43;28.23;99819.28;5028635;28;20045;-72
2022/06/11 08:31:34;;;;;;;3.53;2.38;;;;;;;27.33;28.76;99817.13;5029321;28;20426;-70
2022/06/11 08:33:59;;;;;;;4.38;2.05;;;;;;;27.22;29.04;99797.63;5030057;28;20030;-66
2022/06/11 08:36:25;;;;;;;4.28;2.70;;;;;;;27.06;29.27;99812.88;5028895;28;20039;-71
2022/06/11 08:38:50;;;;;;;4.10;3.45;;;;;;;26.88;31.12;99818.41;5028937;28;20117;-72
2022/06/11 08:41:24;;;;;;;8.95;4.40;;;;;;;26.92;31.51;99830.59;5029712;28;20029;-71
2022/06/11 08:44:15;;;;;;;5.53;4.80;;;;;;;27.13;31.22;99815.53;5030697;28;20381;-70
2022/06/11 08:46:45;;;;;;;7.28;4.78;;;;;;;26.92;32.21;99825.09;5029071;28;20037;-70
2022/06/11 08:49:12;;;;;;;9.60;4.78;;;;;;;26.78;32.50;99814.28;5029581;28;20026;-70
2022/06/11 08:51:58;;;;;;;10.35;4.60;;;;;;;26.73;33.25;99816.03;5029822;28;20033;-70
2022/06/11 08:54:28;;;;;;;7.35;4.70;;;;;;;26.67;34.04;99817.81;5010662;28;20042;-72
2022/06/11 08:57:03;;;;;;;6.78;4.75;;;;;;;26.48;34.53;99809.56;5010223;28;20030;-69
2022/06/11 08:59:56;;;;;;;6.20;4.60;;;;;;;26.64;34.00;99810.03;5010067;28;20490;-71
2022/06/11 09:02:31;;;;;;;7.30;4.78;;;;;;;26.63;35.83;99811.09;5010067;28;20034;-70
2022/06/11 09:05:15;;;;;;;11.40;5.25;;;;;;;26.80;34.53;99809.41;5027159;28;20030;-69
2022/06/11 09:07:59;;;;;;;7.05;4.90;;;;;;;26.52;35.95;99807.22;5029741;28;20055;-69
2022/06/11 09:10:33;;;;;;;8.30;5.07;;;;;;;26.35;35.09;99810.56;5030085;28;20550;-68
2022/06/11 09:13:36;;;;;;;6.78;4.50;;;;;;;26.25;35.26;99810.28;5029778;28;20127;-71
2022/06/11 09:16:04;;;;;;;9.02;4.50;;;;;;;25.97;36.77;99821.72;5029770;28;20037;-71
2022/06/11 09:18:48;;;;;;;5.20;4.40;;;;;;;26.14;36.48;99814.59;5028965;28;20057;-71
2022/06/11 09:22:09;;;;;;;8.57;4.00;;;;;;;26.35;35.17;99826.22;5030002;28;20143;-70
2022/06/11 09:24:55;;;;;;;8.93;4.57;;;;;;;26.36;35.67;99825.16;5029230;28;20050;-73
2022/06/11 09:27:50;;;;;;;4.35;3.88;;;;;;;26.47;35.67;99823.53;5030174;28;20033;-68
2022/06/11 09:30:15;;;;;;;5.93;4.13;;;;;;;26.28;34.32;99820.78;5025580;28;20049;-70
2022/06/11 09:32:51;;;;;;;7.72;4.30;;;;;;;26.18;34.80;99825.97;5029167;28;20111;-69
2022/06/11 09:35:19;;;;;;;4.88;3.67;;;;;;;25.88;36.04;99813.78;5028208;28;20435;-70
2022/06/11 09:38:02;;;;;;;6.00;4.10;;;;;;;25.79;35.86;99823.34;5028574;28;20486;-71
2022/06/11 09:40:37;;;;;;;6.10;3.85;;;;;;;25.55;36.11;99817.63;5029524;28;20065;-71
2022/06/11 09:43:30;;;;;;;7.20;3.55;;;;;;;25.32;35.34;99802.63;5032575;28;20044;-70
2022/06/11 09:46:29;;;;;;;7.70;2.92;;;;;;;25.28;35.70;99823.28;5032764;28;20041;-72
2022/06/11 09:49:32;;;;;;;4.20;2.80;;;;;;;25.13;35.29;99831.00;5032590;28;20053;-71
2022/06/11 09:52:10;;;;;;;5.90;3.53;;;;;;;24.88;36.15;99829.03;5033611;28;20041;-70
2022/06/11 09:55:10;;;;;;;4.32;3.13;;;;;;;24.87;36.00;99824.59;5032389;28;20029;-70
2022/06/11 09:57:47;;;;;;;5.00;4.05;;;;;;;24.64;36.92;99839.63;5033068;28;20113;-69
2022/06/11 10:00:22;;;;;;;5.55;3.40;;;;;;;24.48;37.20;99833.56;5034115;28;20068;-69
2022/06/11 10:05:57;;;;;;;5.07;3.03;;;;;;;24.39;37.53;99823.06;5032972;28;20052;-70
2022/06/11 10:08:38;;;;;;;2.92;2.72;;;;;;;24.23;37.68;99833.41;5033568;28;20033;-70
2022/06/11 10:11:06;;;;;;;3.25;2.60;;;;;;;23.98;38.46;99823.13;5032994;28;20036;-70
2022/06/11 10:13:37;;;;;;;4.28;2.60;;;;;;;24.03;38.77;99830.72;5032345;28;20189;-69
2022/06/11 10:16:19;;;;;;;3.25;2.85;;;;;;;24.16;39.12;99827.13;5032638;28;20116;-68
2022/06/11 10:18:47;;;;;;;5.90;3.22;;;;;;;24.28;39.19;99817.22;5032844;28;20083;-70
2022/06/11 10:21:15;;;;;;;4.22;3.10;;;;;;;24.56;38.69;99828.91;5033163;28;20083;-65
2022/06/11 10:23:56;;;;;;;5.57;3.38;;;;;;;24.83;38.22;99810.50;5032276;28;20151;-66
2022/06/11 10:26:34;;;;;;;7.40;3.83;;;;;;;25.04;38.81;99812.06;5032363;28;20044;-67
2022/06/11 10:29:07;;;;;;;8.35;3.35;;;;;;;25.21;37.33;99811.53;5028617;28;20038;-66
2022/06/11 10:31:36;;;;;;;4.80;3.00;;;;;;;25.40;36.69;99812.47;5032245;28;20112;-67
2022/06/11 10:34:10;;;;;;;4.57;2.90;;;;;;;25.60;35.38;99801.38;5026013;28;20033;-65
2022/06/11 10:37:02;;;;;;;4.55;3.25;;;;;;;26.06;34.79;99806.66;5031919;28;20418;-66
2022/06/11 10:40:06;;;;;;;6.25;3.40;;;;;;;26.20;34.36;99813.69;5002716;28;20378;-66
2022/06/11 10:42:43;;;;;;;6.95;3.33;;;;;;;26.33;34.26;99800.91;5032010;28;20034;-66
2022/06/11 10:45:16;;;;;;;6.53;3.55;;;;;;;26.31;34.59;99803.03;5031675;28;20433;-66
2022/06/11 10:47:47;;;;;;;7.40;3.55;;;;;;;26.27;34.96;99801.81;5031840;28;20415;-67
2022/06/11 10:50:13;;;;;;;4.72;3.08;;;;;;;26.23;34.87;99796.78;5032265;28;20500;-67
2022/06/11 10:52:53;;;;;;;7.35;3.33;;;;;;;26.30;34.70;99806.84;5031723;28;20045;-66
2022/06/11 10:55:34;;;;;;;8.18;3.38;;;;;;;26.53;34.25;99802.59;5031549;28;20033;-67
2022/06/11 10:58:30;;;;;;;6.10;3.45;;;;;;;26.56;34.17;99802.13;5031963;28;20037;-65
2022/06/11 11:01:11;;;;;;;4.22;3.42;;;;;;;26.31;33.90;99781.09;5029906;28;20045;-67
2022/06/11 11:03:48;;;;;;;7.18;3.55;;;;;;;26.28;34.55;99798.84;5030307;28;20436;-69
2022/06/11 11:06:34;;;;;;;5.97;3.50;;;;;;;26.05;34.44;99783.84;5030833;28;20037;-67
2022/06/11 11:09:12;;;;;;;4.35;3.47;;;;;;;25.99;34.91;99800.38;5032195;28;20037;-64
2022/06/11 11:11:44;;;;;;;4.95;3.40;;;;;;;25.79;35.53;99799.53;5031448;28;20037;-68
2022/06/11 11:14:19;;;;;;;5.32;3.72;;;;;;;25.67;35.71;99805.97;5030469;28;20037;-69
2022/06/11 11:16:48;;;;;;;5.55;4.18;;;;;;;25.48;35.39;99801.28;5031608;28;20398;-66
2022/06/11 11:19:25;;;;;;;7.47;3.60;;;;;;;25.49;36.61;99813.06;5031232;28;20039;-65
2022/06/11 11:21:59;;;;;;;7.72;4.32;;;;;;;25.53;35.83;99807.97;5031660;28;20048;-67
2022/06/11 11:24:34;;;;;;;9.02;4.05;;;;;;;25.46;35.59;99786.91;5030783;28;20060;-67
2022/06/11 11:27:09;;;;;;;5.93;4.30;;;;;;;25.56;35.46;99791.94;5031856;28;20067;-66
2022/06/11 11:29:38;;;;;;;6.57;4.13;;;;;;;25.60;35.15;99779.44;5032175;28;20106;-66
2022/06/11 11:32:24;;;;;;;6.18;4.20;;;;;;;25.89;35.42;99807.22;5030796;28;20044;-66
2022/06/11 11:34:50;;;;;;;5.88;4.00;;;;;;;25.98;35.53;99807.78;5031349;28;20039;-75
2022/06/11 11:37:15;;;;;;;8.13;4.28;;;;;;;25.97;35.59;99800.63;5031692;28;20029;-66
2022/06/11 11:39:51;;;;;;;8.48;4.53;;;;;;;26.12;34.72;99805.75;5030899;28;20048;-66
2022/06/11 11:42:26;;;;;;;7.32;4.47;;;;;;;26.17;35.01;99808.66;5030983;28;20080;-65
2022/06/11 11:44:57;;;;;;;7.35;4.40;;;;;;;25.91;35.76;99766.72;5029411;28;20136;-67
2022/06/11 11:47:37;;;;;;;5.82;4.03;;;;;;;26.29;35.50;99810.66;5031544;28;20041;-67
2022/06/11 11:50:06;;;;;;;9.07;4.75;;;;;;;25.97;36.29;99814.34;5030707;28;20025;-67
2022/06/11 11:52:43;;;;;;;5.88;4.35;;;;;;;25.74;37.14;99804.00;5030938;28;20044;-69
2022/06/11 11:55:19;;;;;;;7.65;4.53;;;;;;;25.63;37.64;99803.69;5031075;28;20039;-67
2022/06/11 11:57:59;;;;;;;5.80;4.72;;;;;;;25.42;37.72;99802.09;5030607;28;20042;-67
2022/06/11 12:00:32;;;;;;;6.13;4.82;;;;;;;25.21;38.35;99800.59;5030655;28;20095;-66